Time;durP1;ratioP1;P1;durP2;ratioP2;P2;SDS_P1;SDS_P2;PMS_P1;PMS_P2;Temp;Humidity;BMP_temperature;BMP_pressure;BME280_temperature;BME280_humidity;BME280_pressure;Samples;Min_cycle;Max_cycle;Signal;HPM_P1;HPM_P2
2021/03/07 00:01:48;;;;;;;4.28;2.08;;;3.80;80.80;;;;;;5030801;28;20088;-67
2021/03/07 00:04:13;;;;;;;3.17;1.83;;;3.80;80.60;;;;;;5033290;28;20099;-68
2021/03/07 00:06:39;;;;;;;6.68;2.00;;;3.80;80.50;;;;;;5032331;28;20021;-67
2021/03/07 00:09:05;;;;;;;6.15;2.10;;;3.80;80.80;;;;;;5033272;28;20032;-68
2021/03/07 00:11:30;;;;;;;6.40;1.85;;;3.80;80.80;;;;;;5033200;28;20021;-67
2021/03/07 00:13:56;;;;;;;3.67;1.70;;;3.80;80.60;;;;;;5032438;28;20112;-67
2021/03/07 00:16:22;;;;;;;5.53;2.47;;;3.80;80.80;;;;;;5032280;28;20390;-67
2021/03/07 00:18:47;;;;;;;7.13;2.40;;;3.80;80.50;;;;;;5033460;28;20075;-67
2021/03/07 00:21:15;;;;;;;4.97;1.90;;;3.80;80.30;;;;;;5032993;28;20021;-67
2021/03/07 00:23:41;;;;;;;1017.05;472.52;;;3.80;80.50;;;;;;5032651;28;20382;-67
2021/03/07 00:26:07;;;;;;;403.85;191.80;;;3.80;80.70;;;;;;5032186;28;20032;-68
2021/03/07 00:28:32;;;;;;;11.68;8.00;;;3.80;80.10;;;;;;5032328;28;20036;-67
2021/03/07 00:30:58;;;;;;;8.13;2.00;;;3.90;79.80;;;;;;5031418;28;20096;-67
2021/03/07 00:33:24;;;;;;;5.80;1.85;;;3.90;79.50;;;;;;5032153;28;20109;-67
2021/03/07 00:35:49;;;;;;;6.00;1.90;;;3.80;79.70;;;;;;5031324;28;20026;-67
2021/03/07 00:38:15;;;;;;;7.20;1.73;;;3.80;79.70;;;;;;5031569;28;20084;-67
2021/03/07 00:40:41;;;;;;;7.20;1.90;;;3.80;79.60;;;;;;5032400;28;20523;-67
2021/03/07 00:43:06;;;;;;;5.10;1.77;;;3.80;79.60;;;;;;5032351;28;20816;-67
2021/03/07 00:45:33;;;;;;;8.88;3.08;;;3.90;79.60;;;;;;5030402;28;20082;-67
2021/03/07 00:47:59;;;;;;;3.13;1.52;;;3.80;79.50;;;;;;5032972;28;20036;-67
2021/03/07 00:50:25;;;;;;;4.18;1.55;;;3.80;79.80;;;;;;5033871;28;20450;-68
2021/03/07 00:52:52;;;;;;;6.68;1.50;;;3.80;79.60;;;;;;5032466;28;20038;-67
2021/03/07 00:55:17;;;;;;;4.03;1.77;;;3.80;79.30;;;;;;5028405;28;20037;-67
2021/03/07 00:57:43;;;;;;;6.28;1.95;;;3.90;79.70;;;;;;5032386;28;20025;-67
2021/03/07 01:00:15;;;;;;;7.03;1.98;;;3.90;79.50;;;;;;5032108;28;20021;-68
2021/03/07 01:02:41;;;;;;;4.43;1.50;;;3.90;79.60;;;;;;5048227;28;20037;-67
2021/03/07 01:05:07;;;;;;;4.57;1.42;;;3.90;79.40;;;;;;5032327;28;20025;-67
2021/03/07 01:07:33;;;;;;;3.85;1.40;;;3.80;79.60;;;;;;5030517;28;20037;-67
2021/03/07 01:10:00;;;;;;;4.50;1.70;;;3.80;79.50;;;;;;5032045;28;20032;-68
2021/03/07 01:12:26;;;;;;;3.78;1.58;;;3.80;79.60;;;;;;5032592;28;20037;-68
2021/03/07 01:14:51;;;;;;;4.90;1.40;;;3.80;79.80;;;;;;5032580;28;20044;-66
2021/03/07 01:17:17;;;;;;;5.47;1.60;;;3.80;79.70;;;;;;5030962;28;20673;-68
2021/03/07 01:19:43;;;;;;;6.78;1.50;;;3.80;79.20;;;;;;5031962;28;20029;-67
2021/03/07 01:22:09;;;;;;;4.68;1.40;;;3.80;79.30;;;;;;5032786;28;20521;-66
2021/03/07 01:24:35;;;;;;;2.75;1.40;;;3.80;79.30;;;;;;5031566;28;20037;-67
2021/03/07 01:27:03;;;;;;;2.58;1.27;;;3.80;79.30;;;;;;5031487;28;20033;-68
2021/03/07 01:29:29;;;;;;;4.90;1.30;;;3.80;79.30;;;;;;5045847;28;20044;-68
2021/03/07 01:31:55;;;;;;;3.20;1.40;;;3.90;79.00;;;;;;5030699;28;20022;-68
2021/03/07 01:34:20;;;;;;;4.68;2.10;;;3.80;79.10;;;;;;5032011;28;20450;-67
2021/03/07 01:36:46;;;;;;;2.97;1.33;;;3.80;79.00;;;;;;5031746;28;20033;-67
2021/03/07 01:39:12;;;;;;;5.35;1.83;;;3.80;79.10;;;;;;5032135;28;20376;-67
2021/03/07 01:41:37;;;;;;;4.55;1.45;;;3.80;79.10;;;;;;5032164;28;20080;-67
2021/03/07 01:44:03;;;;;;;4.30;1.25;;;3.90;78.60;;;;;;5031423;28;20037;-67
2021/03/07 01:46:29;;;;;;;5.82;2.10;;;3.80;78.80;;;;;;5031000;28;20044;-67
2021/03/07 01:48:55;;;;;;;6.00;1.80;;;3.80;78.90;;;;;;5031063;28;20029;-67
2021/03/07 01:51:21;;;;;;;4.60;1.77;;;3.80;78.90;;;;;;5031238;28;20025;-68
2021/03/07 01:53:47;;;;;;;5.43;1.60;;;3.70;78.90;;;;;;5031838;28;20418;-67
2021/03/07 01:56:13;;;;;;;7.50;1.60;;;3.70;79.00;;;;;;5030750;28;20029;-68
2021/03/07 01:58:42;;;;;;;7.45;2.05;;;3.70;78.80;;;;;;5030586;28;20033;-67
2021/03/07 02:01:08;;;;;;;4.47;1.85;;;3.70;78.60;;;;;;5031817;28;20517;-68
2021/03/07 02:03:33;;;;;;;3.22;1.55;;;3.70;78.90;;;;;;5031646;28;20038;-67
2021/03/07 02:05:59;;;;;;;8.52;1.58;;;3.70;79.00;;;;;;5029630;28;20064;-67
2021/03/07 02:08:25;;;;;;;4.65;1.60;;;3.70;78.80;;;;;;5030412;28;20387;-67
2021/03/07 02:11:00;;;;;;;7.22;1.80;;;3.70;78.40;;;;;;5031600;28;20026;-67
2021/03/07 02:13:31;;;;;;;8.02;2.25;;;3.80;78.60;;;;;;5031452;28;20121;-67
2021/03/07 02:16:01;;;;;;;6.78;2.08;;;3.70;78.50;;;;;;5030782;28;20548;-68
2021/03/07 02:18:26;;;;;;;6.22;1.60;;;3.70;78.60;;;;;;5045094;28;20025;-67
2021/03/07 02:20:59;;;;;;;4.78;1.50;;;3.70;78.70;;;;;;5030686;28;20049;-67
2021/03/07 02:23:29;;;;;;;6.38;1.73;;;3.70;78.60;;;;;;5029023;28;20032;-67
2021/03/07 02:25:55;;;;;;;3.78;1.50;;;3.70;78.70;;;;;;5029120;28;20037;-67
2021/03/07 02:28:25;;;;;;;4.63;1.40;;;3.70;78.80;;;;;;5030486;28;20030;-68
2021/03/07 02:30:51;;;;;;;4.53;1.30;;;3.70;78.80;;;;;;5027840;28;20036;-67
2021/03/07 02:33:33;;;;;;;3.50;1.27;;;3.70;78.60;;;;;;5030084;28;20101;-67
2021/03/07 02:36:04;;;;;;;5.32;1.80;;;3.70;78.60;;;;;;5030533;28;20033;-68
2021/03/07 02:38:32;;;;;;;3.85;1.52;;;3.70;79.40;;;;;;5028335;28;20033;-67
2021/03/07 02:40:59;;;;;;;4.25;1.70;;;3.70;78.80;;;;;;5030024;28;20064;-68
2021/03/07 02:43:27;;;;;;;5.78;1.70;;;3.70;78.90;;;;;;5028111;28;20033;-67
2021/03/07 02:45:57;;;;;;;6.10;1.90;;;3.60;79.10;;;;;;5028196;28;20026;-68
2021/03/07 02:48:26;;;;;;;4.90;1.67;;;3.70;79.20;;;;;;5030817;28;20112;-67
2021/03/07 02:50:52;;;;;;;10.68;1.90;;;3.70;78.80;;;;;;5029202;28;20037;-68
2021/03/07 02:53:21;;;;;;;6.78;1.70;;;3.70;79.10;;;;;;5030035;28;20030;-67
2021/03/07 02:55:52;;;;;;;3.47;1.48;;;3.70;79.20;;;;;;5027797;28;20232;-68
2021/03/07 02:58:19;;;;;;;4.25;1.73;;;3.70;79.10;;;;;;5029806;28;20033;-67
2021/03/07 03:00:51;;;;;;;3.85;2.00;;;3.70;78.90;;;;;;5030529;28;20415;-66
2021/03/07 03:03:17;;;;;;;;;;;3.60;79.00;;;;;;5030442;28;20083;-67
2021/03/07 03:05:43;;;;;;;4.53;1.70;;;3.70;78.70;;;;;;5029680;28;19913;-67
2021/03/07 03:08:10;;;;;;;4.38;1.45;;;3.70;78.90;;;;;;5028606;28;20026;-67
2021/03/07 03:10:36;;;;;;;3.33;1.45;;;3.70;79.10;;;;;;5029138;28;20075;-68
2021/03/07 03:13:03;;;;;;;8.07;1.63;;;3.70;79.00;;;;;;5027301;28;20055;-67
2021/03/07 03:15:31;;;;;;;4.45;1.90;;;3.70;79.00;;;;;;5029819;28;20509;-68
2021/03/07 03:17:57;;;;;;;3.78;1.58;;;3.70;79.20;;;;;;5028109;28;20049;-68
2021/03/07 03:20:25;;;;;;;11.45;1.73;;;3.70;79.20;;;;;;5030389;28;20034;-67
2021/03/07 03:22:52;;;;;;;4.25;1.77;;;3.70;79.10;;;;;;5029968;28;20068;-67
2021/03/07 03:25:17;;;;;;;4.05;1.65;;;3.70;79.10;;;;;;5029565;28;20036;-68
2021/03/07 03:27:44;;;;;;;5.00;1.60;;;3.70;79.20;;;;;;5027198;28;20018;-68
2021/03/07 03:30:11;;;;;;;3.60;1.73;;;3.60;79.10;;;;;;5030061;28;20071;-67
2021/03/07 03:32:37;;;;;;;3.42;1.50;;;3.60;79.20;;;;;;5029148;28;20511;-68
2021/03/07 03:35:08;;;;;;;5.43;1.77;;;3.60;78.90;;;;;;5029769;28;20025;-68
2021/03/07 03:37:35;;;;;;;2.30;1.42;;;3.60;79.00;;;;;;5028035;28;20065;-68
2021/03/07 03:40:03;;;;;;;3.28;1.65;;;3.70;78.80;;;;;;5029577;28;20026;-67
2021/03/07 03:42:30;;;;;;;3.45;1.85;;;3.70;78.80;;;;;;5027412;28;20091;-68
2021/03/07 03:44:59;;;;;;;3.20;1.70;;;3.70;78.90;;;;;;5028942;28;20377;-68
2021/03/07 03:47:27;;;;;;;3.03;1.50;;;3.60;78.80;;;;;;5029844;28;20037;-67
2021/03/07 03:49:55;;;;;;;4.15;1.38;;;3.70;78.90;;;;;;5044939;28;20087;-68
2021/03/07 03:52:22;;;;;;;4.30;1.40;;;3.60;78.80;;;;;;5029021;28;20072;-68
2021/03/07 03:55:16;;;;;;;7.95;1.80;;;3.60;78.50;;;;;;5029463;28;20775;-68
2021/03/07 03:57:43;;;;;;;6.75;1.60;;;3.60;78.70;;;;;;5029080;28;20045;-67
2021/03/07 04:00:22;;;;;;;5.03;1.73;;;3.60;78.60;;;;;;5028652;28;20045;-67
2021/03/07 04:02:49;;;;;;;6.00;2.20;;;3.60;78.50;;;;;;5029930;28;20029;-67
2021/03/07 04:05:19;;;;;;;4.13;1.60;;;3.60;78.70;;;;;;5028538;28;20048;-68
2021/03/07 04:07:49;;;;;;;5.97;2.20;;;3.70;78.40;;;;;;5028060;28;20526;-68
2021/03/07 04:10:17;;;;;;;3.05;1.80;;;3.70;78.10;;;;;;5026458;28;20032;-67
2021/03/07 04:12:45;;;;;;;5.07;2.10;;;3.60;78.20;;;;;;5028940;28;20033;-67
2021/03/07 04:15:11;;;;;;;4.35;2.00;;;3.70;78.40;;;;;;5028279;28;20041;-68
2021/03/07 04:17:38;;;;;;;3.42;1.83;;;3.70;78.40;;;;;;5026624;28;20030;-68
2021/03/07 04:20:05;;;;;;;6.32;2.30;;;3.60;78.50;;;;;;5028868;28;20026;-68
2021/03/07 04:22:31;;;;;;;4.07;2.47;;;3.70;78.20;;;;;;5028009;28;20065;-68
2021/03/07 04:24:58;;;;;;;6.88;3.58;;;3.70;78.20;;;;;;5028976;28;20491;-68
2021/03/07 04:27:24;;;;;;;3.45;2.05;;;3.70;78.10;;;;;;5029207;28;20030;-67
2021/03/07 04:29:51;;;;;;;6.25;2.10;;;3.70;78.00;;;;;;5028688;28;20526;-67
2021/03/07 04:32:18;;;;;;;5.30;2.25;;;3.70;77.60;;;;;;5043171;28;21011;-67
2021/03/07 04:34:45;;;;;;;6.05;2.25;;;3.70;77.90;;;;;;5029208;28;20127;-68
2021/03/07 04:37:11;;;;;;;5.70;2.70;;;3.70;77.90;;;;;;5028782;28;20040;-67
2021/03/07 04:39:37;;;;;;;6.75;2.40;;;3.80;77.50;;;;;;5030257;28;20029;-67
2021/03/07 04:42:05;;;;;;;6.85;2.40;;;3.80;77.80;;;;;;5029009;28;20112;-68
2021/03/07 04:44:31;;;;;;;6.45;2.38;;;3.80;77.70;;;;;;5029318;28;20034;-67
2021/03/07 04:46:57;;;;;;;4.65;2.42;;;3.70;77.50;;;;;;5026621;28;20032;-67
2021/03/07 04:49:22;;;;;;;8.18;2.30;;;3.70;77.80;;;;;;5031751;28;20025;-68
2021/03/07 04:51:49;;;;;;;4.75;2.22;;;3.80;77.50;;;;;;5033502;28;20021;-67
2021/03/07 04:54:14;;;;;;;3.92;2.15;;;3.80;77.80;;;;;;5031000;28;20034;-67
2021/03/07 04:56:40;;;;;;;3.70;2.38;;;3.70;78.00;;;;;;5032243;28;20028;-67
2021/03/07 04:59:06;;;;;;;7.30;2.65;;;3.70;78.10;;;;;;5031663;28;20482;-68
2021/03/07 05:01:32;;;;;;;8.38;2.58;;;3.70;78.10;;;;;;5030977;28;20079;-67
2021/03/07 05:03:57;;;;;;;9.18;2.70;;;3.70;78.10;;;;;;5031070;28;20076;-68
2021/03/07 05:06:25;;;;;;;5.40;2.67;;;3.70;77.80;;;;;;5032005;28;20523;-67
2021/03/07 05:08:51;;;;;;;7.38;2.78;;;3.80;78.00;;;;;;5032183;28;20586;-67
2021/03/07 05:11:21;;;;;;;3.97;2.33;;;3.70;78.30;;;;;;5031387;28;20037;-67
2021/03/07 05:13:47;;;;;;;6.93;2.42;;;3.70;78.40;;;;;;5032347;28;20028;-68
2021/03/07 05:16:13;;;;;;;4.10;2.50;;;3.70;78.20;;;;;;5031765;28;20025;-68
2021/03/07 05:18:39;;;;;;;5.50;2.70;;;3.70;78.40;;;;;;5031386;28;20044;-68
2021/03/07 05:21:04;;;;;;;5.07;2.70;;;3.70;78.60;;;;;;5031272;28;20033;-67
2021/03/07 05:23:30;;;;;;;4.90;2.40;;;3.70;78.60;;;;;;5032402;28;20459;-67
2021/03/07 05:25:57;;;;;;;8.18;2.38;;;3.70;78.60;;;;;;5031228;28;20423;-68
2021/03/07 05:28:23;;;;;;;3.30;1.88;;;3.70;78.90;;;;;;5029747;28;20475;-68
2021/03/07 05:30:49;;;;;;;4.45;2.60;;;3.70;78.80;;;;;;5030140;28;20025;-68
2021/03/07 05:33:16;;;;;;;4.72;2.42;;;3.70;78.70;;;;;;5032392;28;20017;-67
2021/03/07 05:35:42;;;;;;;5.50;2.17;;;3.70;78.90;;;;;;5031049;28;20116;-67
2021/03/07 05:38:09;;;;;;;7.32;2.70;;;3.70;79.20;;;;;;5031015;28;20577;-67
2021/03/07 05:40:35;;;;;;;5.20;2.47;;;3.60;79.30;;;;;;5031811;28;20033;-68
2021/03/07 05:43:04;;;;;;;7.47;3.25;;;3.60;79.40;;;;;;5028995;28;20515;-68
2021/03/07 05:45:30;;;;;;;4.43;2.60;;;3.70;79.60;;;;;;5028832;28;20756;-68
2021/03/07 05:47:56;;;;;;;4.90;2.90;;;3.70;79.50;;;;;;5032282;28;20079;-68
2021/03/07 05:50:23;;;;;;;6.03;2.25;;;3.60;79.60;;;;;;5032229;28;20037;-68
2021/03/07 05:52:51;;;;;;;11.15;2.50;;;3.60;79.50;;;;;;5028380;28;20021;-68
2021/03/07 05:55:18;;;;;;;6.72;2.35;;;3.60;79.70;;;;;;5030373;28;20551;-68
2021/03/07 05:57:46;;;;;;;5.88;3.00;;;3.70;79.60;;;;;;5029988;28;20492;-68
2021/03/07 06:00:17;;;;;;;6.97;2.70;;;3.70;79.60;;;;;;5030270;28;20029;-68
2021/03/07 06:02:43;;;;;;;4.43;2.60;;;3.70;79.60;;;;;;5030733;28;20082;-68
2021/03/07 06:05:13;;;;;;;7.70;2.30;;;3.70;79.70;;;;;;5030044;28;20116;-68
2021/03/07 06:07:39;;;;;;;6.53;2.47;;;3.70;79.60;;;;;;5029523;28;20190;-68
2021/03/07 06:10:23;;;;;;;5.28;2.40;;;3.70;79.60;;;;;;5029385;28;20408;-68
2021/03/07 06:13:15;;;;;;;4.03;2.55;;;3.70;79.80;;;;;;5027697;28;20112;-68
2021/03/07 06:15:43;;;;;;;6.07;2.72;;;3.70;79.80;;;;;;5029527;28;20045;-68
2021/03/07 06:18:17;;;;;;;5.68;2.53;;;3.70;79.70;;;;;;5028960;28;20037;-68
2021/03/07 06:20:46;;;;;;;9.60;2.53;;;3.70;79.70;;;;;;5029051;28;20048;-68
2021/03/07 06:23:12;;;;;;;5.63;2.80;;;3.70;79.90;;;;;;5029821;28;20491;-68
2021/03/07 06:25:49;;;;;;;5.88;2.35;;;3.70;79.90;;;;;;5029179;28;20025;-68
2021/03/07 06:28:26;;;;;;;8.55;2.85;;;3.70;79.80;;;;;;5029714;28;20040;-68
2021/03/07 06:30:53;;;;;;;6.65;2.90;;;3.70;79.50;;;;;;5026555;28;20587;-68
2021/03/07 06:33:29;;;;;;;11.02;4.32;;;3.70;79.90;;;;;;5026858;28;20025;-68
2021/03/07 06:36:15;;;;;;;5.30;2.63;;;3.70;80.00;;;;;;5027523;28;20033;-68
2021/03/07 06:39:05;;;;;;;9.63;3.00;;;3.70;81.60;;;;;;5029009;28;20029;-68
2021/03/07 06:41:33;;;;;;;8.27;2.75;;;3.80;79.60;;;;;;5029113;28;20048;-68
2021/03/07 06:44:13;;;;;;;7.90;3.38;;;3.80;79.20;;;;;;5029949;28;20025;-68
2021/03/07 06:46:42;;;;;;;5.03;2.40;;;3.80;79.20;;;;;;5029456;28;20088;-68
2021/03/07 06:49:21;;;;;;;5.95;3.17;;;3.80;79.20;;;;;;5028181;28;20041;-68
2021/03/07 06:51:47;;;;;;;4.55;2.55;;;3.80;79.20;;;;;;5031064;28;20037;-68
2021/03/07 06:54:18;;;;;;;4.88;2.65;;;3.80;79.30;;;;;;5029681;28;20025;-67
2021/03/07 06:56:46;;;;;;;7.72;2.85;;;3.80;79.20;;;;;;5029536;28;20026;-68
2021/03/07 06:59:16;;;;;;;6.30;2.70;;;3.80;79.20;;;;;;5029411;28;20120;-68
2021/03/07 07:02:10;;;;;;;5.53;3.10;;;3.80;79.50;;;;;;5028032;28;20060;-68
2021/03/07 07:04:41;;;;;;;4.88;2.63;;;3.80;80.30;;;;;;5028445;28;20029;-68
2021/03/07 07:07:08;;;;;;;8.77;2.50;;;3.80;79.70;;;;;;5026552;28;20037;-68
2021/03/07 07:09:34;;;;;;;6.40;2.90;;;3.80;80.00;;;;;;5029563;28;20072;-68
2021/03/07 07:12:01;;;;;;;6.18;2.38;;;3.90;79.90;;;;;;5028691;28;20060;-67
2021/03/07 07:14:40;;;;;;;5.95;2.97;;;3.90;80.00;;;;;;5030405;28;20029;-68
2021/03/07 07:17:15;;;;;;;9.35;3.38;;;3.80;80.10;;;;;;5030900;28;20566;-68
2021/03/07 07:19:42;;;;;;;6.50;2.75;;;3.90;80.40;;;;;;5031756;28;20040;-67
2021/03/07 07:22:11;;;;;;;7.50;2.90;;;3.80;80.30;;;;;;5029657;28;20029;-67
2021/03/07 07:24:38;;;;;;;8.45;3.60;;;3.80;80.50;;;;;;5030605;28;20033;-67
2021/03/07 07:27:04;;;;;;;6.65;2.65;;;3.90;79.50;;;;;;5030469;28;20539;-67
2021/03/07 07:29:30;;;;;;;8.35;2.78;;;3.90;79.70;;;;;;5029938;28;20037;-66
2021/03/07 07:32:07;;;;;;;7.95;3.15;;;3.90;80.00;;;;;;5029988;28;20025;-66
2021/03/07 07:34:43;;;;;;;6.28;2.65;;;3.90;79.70;;;;;;5034157;28;20035;-66
2021/03/07 07:37:19;;;;;;;6.32;2.58;;;3.90;79.40;;;;;;5028233;28;20036;-66
2021/03/07 07:39:51;;;;;;;13.07;2.50;;;4.00;78.70;;;;;;5030862;28;20388;-67
2021/03/07 07:42:30;;;;;;;4.38;2.35;;;4.00;78.00;;;;;;5030164;28;20052;-66
2021/03/07 07:44:59;;;;;;;6.53;2.70;;;4.00;77.60;;;;;;5030073;28;20116;-67
2021/03/07 07:47:25;;;;;;;7.38;2.20;;;3.90;77.20;;;;;;5029871;28;20030;-66
2021/03/07 07:49:52;;;;;;;9.43;3.08;;;4.00;77.00;;;;;;5030431;28;20029;-66
2021/03/07 07:52:23;;;;;;;7.85;2.45;;;3.90;77.20;;;;;;5030143;28;20025;-66
2021/03/07 07:54:55;;;;;;;7.50;2.38;;;3.90;77.30;;;;;;5027730;28;20463;-66
2021/03/07 07:57:32;;;;;;;15.10;2.20;;;4.00;76.60;;;;;;5030196;28;20087;-69
2021/03/07 08:00:07;;;;;;;6.53;2.20;;;4.00;75.80;;;;;;5029627;28;20025;-69
2021/03/07 08:02:49;;;;;;;4.82;1.92;;;4.00;75.60;;;;;;5027502;28;20049;-68
2021/03/07 08:05:21;;;;;;;7.68;2.10;;;4.00;75.50;;;;;;5028737;28;20036;-69
2021/03/07 08:07:58;;;;;;;6.18;2.15;;;4.10;75.00;;;;;;5028752;28;20379;-69
2021/03/07 08:10:43;;;;;;;6.13;1.80;;;4.10;74.40;;;;;;5028950;28;20499;-70
2021/03/07 08:13:10;;;;;;;7.35;1.95;;;4.10;74.40;;;;;;5029040;28;20108;-70
2021/03/07 08:15:52;;;;;;;5.82;1.73;;;4.10;74.10;;;;;;5030681;28;20087;-70
2021/03/07 08:18:19;;;;;;;5.82;1.90;;;4.20;73.80;;;;;;5042494;28;20033;-69
2021/03/07 08:20:45;;;;;;;8.48;2.13;;;4.20;73.10;;;;;;5028088;28;20022;-69
2021/03/07 08:23:12;;;;;;;6.15;1.98;;;4.20;73.30;;;;;;5028736;28;20388;-70
2021/03/07 08:25:47;;;;;;;4.32;2.22;;;4.20;73.40;;;;;;5031832;28;20044;-69
2021/03/07 08:28:30;;;;;;;9.77;2.30;;;4.20;73.40;;;;;;5031562;28;20383;-68
2021/03/07 08:30:58;;;;;;;4.85;1.70;;;4.30;72.90;;;;;;5030258;28;20030;-68
2021/03/07 08:33:32;;;;;;;7.65;1.83;;;4.30;72.90;;;;;;5033658;28;20036;-68
2021/03/07 08:36:16;;;;;;;5.10;1.50;;;4.30;72.60;;;;;;5032511;28;20078;-69
2021/03/07 08:38:57;;;;;;;10.50;2.33;;;4.30;73.10;;;;;;5033228;28;20073;-67
2021/03/07 08:41:33;;;;;;;6.75;1.63;;;4.30;72.70;;;;;;5033369;28;20666;-65
2021/03/07 08:44:09;;;;;;;4.95;1.75;;;4.30;72.60;;;;;;5032088;28;20087;-69
2021/03/07 08:46:40;;;;;;;4.97;2.25;;;4.30;72.90;;;;;;5032038;28;20029;-65
2021/03/07 08:49:11;;;;;;;4.57;1.70;;;4.40;72.50;;;;;;5032048;28;20041;-65
2021/03/07 08:51:38;;;;;;;;;;;4.40;72.80;;;;;;5032108;28;20045;-67
2021/03/07 08:54:22;;;;;;;6.35;2.80;;;4.30;72.80;;;;;;5031229;28;20515;-68
2021/03/07 08:56:49;;;;;;;9.45;2.10;;;4.40;73.30;;;;;;5030832;28;20033;-67
2021/03/07 08:59:16;;;;;;;9.10;2.70;;;4.40;73.60;;;;;;5031013;28;20030;-68
2021/03/07 09:01:43;;;;;;;7.28;2.15;;;4.40;73.60;;;;;;5029965;28;20030;-68
2021/03/07 09:04:10;;;;;;;8.73;2.53;;;4.40;74.00;;;;;;5032556;28;20507;-68
2021/03/07 09:06:41;;;;;;;6.68;2.15;;;4.40;74.00;;;;;;5031138;28;20060;-68
2021/03/07 09:09:07;;;;;;;5.33;2.27;;;4.40;74.30;;;;;;5029627;28;20048;-68
2021/03/07 09:11:46;;;;;;;9.20;2.40;;;4.40;74.70;;;;;;5046059;28;20286;-66
2021/03/07 09:14:12;;;;;;;6.20;2.15;;;4.40;75.00;;;;;;5046045;28;20116;-67
2021/03/07 09:16:40;;;;;;;10.85;2.92;;;4.40;74.90;;;;;;5028432;28;20108;-67
2021/03/07 09:19:26;;;;;;;8.38;2.10;;;4.50;74.40;;;;;;5032140;28;20104;-63
2021/03/07 09:22:22;;;;;;;5.68;2.97;;;4.60;74.80;;;;;;5029178;28;20039;-67
2021/03/07 09:24:50;;;;;;;6.70;2.15;;;4.70;74.40;;;;;;5028920;28;20033;-65
2021/03/07 09:27:16;;;;;;;3.72;2.13;;;4.70;74.30;;;;;;5027571;28;20075;-65
2021/03/07 09:29:57;;;;;;;10.50;2.33;;;4.80;73.70;;;;;;5029717;28;20033;-65
2021/03/07 09:32:24;;;;;;;5.40;2.10;;;4.90;73.40;;;;;;5027481;28;20112;-68
2021/03/07 09:34:50;;;;;;;9.32;2.20;;;5.00;73.20;;;;;;5027953;28;20056;-67
2021/03/07 09:37:16;;;;;;;6.47;2.15;;;5.10;72.80;;;;;;5028288;28;20053;-66
2021/03/07 09:39:46;;;;;;;9.50;2.30;;;5.20;72.00;;;;;;5031169;28;20037;-65
2021/03/07 09:42:12;;;;;;;7.68;2.03;;;5.20;72.30;;;;;;5026914;28;20132;-67
2021/03/07 09:44:40;;;;;;;8.68;2.22;;;5.20;70.90;;;;;;5028552;28;20084;-67
2021/03/07 09:47:05;;;;;;;10.25;2.10;;;5.30;71.20;;;;;;5028720;28;20120;-67
2021/03/07 09:49:31;;;;;;;5.32;2.28;;;5.40;70.60;;;;;;5031146;28;20236;-66
2021/03/07 09:51:57;;;;;;;10.80;2.47;;;5.40;70.30;;;;;;5032530;28;20041;-64
2021/03/07 09:54:25;;;;;;;6.28;2.00;;;5.40;70.30;;;;;;5031250;28;20033;-67
2021/03/07 09:56:52;;;;;;;11.27;2.47;;;5.50;69.30;;;;;;5029532;28;20053;-67
2021/03/07 09:59:19;;;;;;;7.32;2.30;;;5.50;70.30;;;;;;5030255;28;20030;-67
2021/03/07 10:02:01;;;;;;;5.47;2.33;;;5.60;68.80;;;;;;5031372;28;20071;-68
2021/03/07 10:04:45;;;;;;;5.78;2.10;;;5.60;68.20;;;;;;5032014;28;20099;-69
2021/03/07 10:07:17;;;;;;;8.68;2.10;;;5.70;68.50;;;;;;5028093;28;20061;-68
2021/03/07 10:09:56;;;;;;;4.80;2.10;;;5.60;68.50;;;;;;5030305;28;20507;-70
2021/03/07 10:12:21;;;;;;;4.85;2.05;;;5.60;68.40;;;;;;5032211;28;20045;-68
2021/03/07 10:14:54;;;;;;;7.40;2.10;;;5.60;69.10;;;;;;5030982;28;20029;-69
2021/03/07 10:17:21;;;;;;;7.22;2.10;;;5.60;69.40;;;;;;5032140;28;20034;-66
2021/03/07 10:19:47;;;;;;;8.55;2.47;;;5.70;69.50;;;;;;5032025;28;20033;-66
2021/03/07 10:22:13;;;;;;;9.02;2.50;;;5.60;70.00;;;;;;5032552;28;20026;-66
2021/03/07 10:24:40;;;;;;;6.25;2.58;;;5.70;69.70;;;;;;5032690;28;20095;-67
2021/03/07 10:27:08;;;;;;;10.88;2.97;;;5.80;69.90;;;;;;5031935;28;20871;-67
2021/03/07 10:29:39;;;;;;;6.88;2.63;;;5.90;70.10;;;;;;5032032;28;20029;-67
2021/03/07 10:32:16;;;;;;;7.47;3.00;;;5.80;70.10;;;;;;5031792;28;20575;-66
2021/03/07 10:34:46;;;;;;;7.20;2.75;;;5.80;70.30;;;;;;5029598;28;20116;-67
2021/03/07 10:37:42;;;;;;;6.57;3.03;;;5.80;70.60;;;;;;5026826;28;20040;-67
2021/03/07 10:40:13;;;;;;;7.07;2.88;;;5.70;71.50;;;;;;5028110;28;20033;-71
2021/03/07 10:42:41;;;;;;;6.60;2.58;;;5.70;71.60;;;;;;5027919;28;20036;-68
2021/03/07 10:45:17;;;;;;;6.55;3.10;;;5.80;71.90;;;;;;5026139;28;20068;-70
2021/03/07 10:47:47;;;;;;;6.18;2.50;;;5.80;71.80;;;;;;5039573;28;20028;-66
2021/03/07 10:50:12;;;;;;;9.00;3.20;;;5.80;72.10;;;;;;5028345;28;20037;-67
2021/03/07 10:52:38;;;;;;;9.88;3.08;;;5.80;72.20;;;;;;5030301;28;20026;-66
2021/03/07 10:55:12;;;;;;;5.13;3.17;;;5.80;72.00;;;;;;5029872;28;20029;-67
2021/03/07 10:57:38;;;;;;;9.85;3.05;;;5.80;71.90;;;;;;5029012;28;20109;-66
2021/03/07 11:00:05;;;;;;;9.48;2.90;;;5.90;71.50;;;;;;5030068;28;20036;-66
2021/03/07 11:02:30;;;;;;;11.50;3.00;;;5.80;71.70;;;;;;5030778;28;20109;-67
2021/03/07 11:04:56;;;;;;;8.73;3.22;;;5.80;72.00;;;;;;5029636;28;20068;-67
2021/03/07 11:07:22;;;;;;;7.40;3.20;;;5.70;71.60;;;;;;5029439;28;20395;-67
2021/03/07 11:09:47;;;;;;;7.40;3.00;;;5.80;71.70;;;;;;5045712;28;20021;-67
2021/03/07 11:12:13;;;;;;;8.02;2.70;;;5.70;71.90;;;;;;5030116;28;20075;-67
2021/03/07 11:14:39;;;;;;;9.10;3.00;;;5.70;71.70;;;;;;5031381;28;20025;-67
2021/03/07 11:17:04;;;;;;;10.88;3.30;;;5.60;71.70;;;;;;5030095;28;20438;-67
2021/03/07 11:19:30;;;;;;;9.73;3.22;;;5.60;71.40;;;;;;5031131;28;20035;-67
2021/03/07 11:21:56;;;;;;;5.38;2.95;;;5.60;72.60;;;;;;5030665;28;20150;-67
2021/03/07 11:24:21;;;;;;;8.10;2.92;;;5.50;72.50;;;;;;5030315;28;20103;-67
2021/03/07 11:26:47;;;;;;;12.15;3.08;;;5.50;72.30;;;;;;5030070;28;20025;-67
2021/03/07 11:29:13;;;;;;;5.85;3.20;;;5.50;72.50;;;;;;5047673;28;20037;-67
2021/03/07 11:31:38;;;;;;;6.82;3.25;;;5.60;72.10;;;;;;5030497;28;20026;-67
2021/03/07 11:34:04;;;;;;;9.02;3.42;;;5.60;71.40;;;;;;5028744;28;20061;-67
2021/03/07 11:36:30;;;;;;;8.38;3.83;;;5.60;71.00;;;;;;5029144;28;20045;-67
2021/03/07 11:38:55;;;;;;;9.45;3.72;;;5.60;70.50;;;;;;5029685;28;20038;-67
2021/03/07 11:41:21;;;;;;;8.77;4.15;;;5.50;70.30;;;;;;5028690;28;20021;-67
2021/03/07 11:43:47;;;;;;;8.57;4.63;;;5.50;70.80;;;;;;5039878;28;20041;-67
2021/03/07 11:46:13;;;;;;;11.38;4.43;;;5.50;70.90;;;;;;5071006;22;20073;-75
2021/03/07 11:48:38;;;;;;;9.73;4.70;;;5.50;71.30;;;;;;5038648;28;20022;-81
2021/03/07 11:51:04;;;;;;;10.30;4.63;;;5.50;71.90;;;;;;5039685;28;20026;-73
2021/03/07 11:53:30;;;;;;;11.60;5.13;;;5.50;71.80;;;;;;5037872;28;20037;-74
2021/03/07 11:55:56;;;;;;;10.63;5.07;;;5.50;72.10;;;;;;5039356;28;20398;-75
2021/03/07 11:58:22;;;;;;;10.75;4.35;;;5.50;72.20;;;;;;5036954;28;20034;-75
2021/03/07 12:00:47;;;;;;;12.25;4.55;;;5.50;72.50;;;;;;5039829;28;20105;-74
2021/03/07 12:03:13;;;;;;;14.63;5.40;;;5.50;72.40;;;;;;5055020;28;20364;-72
2021/03/07 12:05:39;;;;;;;12.35;5.65;;;5.50;72.90;;;;;;5037975;28;20116;-75
2021/03/07 12:08:05;;;;;;;12.60;6.38;;;5.60;73.10;;;;;;5019052;28;20060;-74
2021/03/07 12:10:31;;;;;;;10.07;5.63;;;5.60;73.10;;;;;;5041286;28;20055;-74
2021/03/07 12:12:56;;;;;;;15.82;7.20;;;5.70;73.00;;;;;;5047071;28;20034;-75
2021/03/07 12:15:26;;;;;;;14.13;6.50;;;5.70;73.20;;;;;;5045260;28;20020;-75
2021/03/07 12:17:51;;;;;;;12.25;6.75;;;5.70;72.80;;;;;;5044833;28;20053;-75
2021/03/07 12:20:17;;;;;;;15.38;6.30;;;5.70;72.80;;;;;;5049229;28;20072;-74
2021/03/07 12:22:45;;;;;;;14.90;7.43;;;5.70;73.20;;;;;;5037507;28;20494;-78
2021/03/07 12:25:11;;;;;;;16.15;7.32;;;5.60;73.70;;;;;;5037876;28;20436;-76
2021/03/07 12:27:37;;;;;;;15.27;6.65;;;5.60;73.80;;;;;;5038320;28;20057;-77
2021/03/07 12:30:04;;;;;;;16.55;7.30;;;5.60;73.90;;;;;;5036533;28;20064;-76
2021/03/07 12:32:30;;;;;;;12.88;6.85;;;5.60;74.00;;;;;;5041296;28;20435;-77
2021/03/07 12:34:55;;;;;;;15.27;7.18;;;5.50;74.30;;;;;;5035512;28;20026;-77
2021/03/07 12:37:21;;;;;;;17.40;6.68;;;5.50;74.40;;;;;;5039615;28;20033;-75
2021/03/07 12:39:47;;;;;;;17.20;7.00;;;5.60;74.60;;;;;;5046488;28;20387;-75
2021/03/07 12:42:13;;;;;;;13.75;7.40;;;5.60;74.70;;;;;;5042565;28;20539;-74
2021/03/07 12:44:39;;;;;;;17.75;7.90;;;5.60;74.90;;;;;;5044494;28;20399;-76
2021/03/07 12:47:05;;;;;;;15.50;7.75;;;5.70;74.80;;;;;;5045455;28;20029;-76
2021/03/07 12:49:30;;;;;;;14.88;8.05;;;5.70;74.90;;;;;;5044229;28;20374;-75
2021/03/07 12:51:57;;;;;;;16.23;7.45;;;5.70;74.70;;;;;;5034986;28;20026;-74
2021/03/07 12:54:22;;;;;;;18.85;8.07;;;5.70;75.00;;;;;;5043051;28;20037;-76
2021/03/07 12:56:48;;;;;;;16.20;7.95;;;5.70;74.90;;;;;;5040514;28;20048;-75
2021/03/07 12:59:14;;;;;;;19.73;7.97;;;5.80;75.00;;;;;;5040693;28;20037;-74
2021/03/07 13:01:41;;;;;;;20.30;8.52;;;5.70;75.40;;;;;;5031667;28;20037;-73
2021/03/07 13:04:06;;;;;;;18.58;8.20;;;5.70;75.50;;;;;;5046509;28;20029;-75